sensor_id;sensor_type;location;lat;lon;timestamp;pressure;altitude;pressure_sealevel;temperature;humidity
49397;BME280;35615;41.410;2.194;2023-01-08T00:01:55;101630.38;;;16.39;39.22
49397;BME280;35615;41.410;2.194;2023-01-08T00:04:32;101630.31;;;16.37;39.42
49397;BME280;35615;41.410;2.194;2023-01-08T00:07:29;101615.25;;;16.27;39.39
49397;BME280;35615;41.410;2.194;2023-01-08T00:10:00;101615.09;;;16.21;39.04
49397;BME280;35615;41.410;2.194;2023-01-08T00:12:29;101609.84;;;16.19;39.17
49397;BME280;35615;41.410;2.194;2023-01-08T00:15:03;101606.50;;;16.25;38.92
49397;BME280;35615;41.410;2.194;2023-01-08T00:17:42;101597.72;;;16.21;38.75
49397;BME280;35615;41.410;2.194;2023-01-08T00:20:44;101583.19;;;16.30;38.86
49397;BME280;35615;41.410;2.194;2023-01-08T00:23:20;101585.91;;;16.34;38.43
49397;BME280;35615;41.410;2.194;2023-01-08T00:26:02;101580.75;;;16.36;38.74
49397;BME280;35615;41.410;2.194;2023-01-08T00:28:35;101579.81;;;16.34;38.93
49397;BME280;35615;41.410;2.194;2023-01-08T00:31:04;101578.13;;;16.36;38.99
49397;BME280;35615;41.410;2.194;2023-01-08T00:33:42;101571.22;;;16.38;38.92
49397;BME280;35615;41.410;2.194;2023-01-08T00:36:24;101567.91;;;16.43;39.04
49397;BME280;35615;41.410;2.194;2023-01-08T00:38:55;101559.25;;;16.44;39.02
49397;BME280;35615;41.410;2.194;2023-01-08T00:41:45;101569.78;;;16.49;39.22
49397;BME280;35615;41.410;2.194;2023-01-08T00:44:21;101569.75;;;16.47;39.28
49397;BME280;35615;41.410;2.194;2023-01-08T00:46:57;101568.91;;;16.48;39.22
49397;BME280;35615;41.410;2.194;2023-01-08T00:49:28;101565.50;;;16.51;38.96
49397;BME280;35615;41.410;2.194;2023-01-08T00:52:02;101566.34;;;16.50;39.24
49397;BME280;35615;41.410;2.194;2023-01-08T00:54:34;101574.16;;;16.50;39.40
49397;BME280;35615;41.410;2.194;2023-01-08T00:57:08;101568.91;;;16.48;39.43
49397;BME280;35615;41.410;2.194;2023-01-08T01:02:34;101567.06;;;16.44;39.85
49397;BME280;35615;41.410;2.194;2023-01-08T01:05:04;101565.47;;;16.49;39.67
49397;BME280;35615;41.410;2.194;2023-01-08T01:07:33;101562.78;;;16.46;40.10
49397;BME280;35615;41.410;2.194;2023-01-08T01:10:01;101560.13;;;16.45;39.79
49397;BME280;35615;41.410;2.194;2023-01-08T01:12:28;101550.59;;;16.45;39.95
49397;BME280;35615;41.410;2.194;2023-01-08T01:14:55;101558.47;;;16.48;40.00
49397;BME280;35615;41.410;2.194;2023-01-08T01:17:24;101565.44;;;16.48;39.97
49397;BME280;35615;41.410;2.194;2023-01-08T01:19:51;101569.91;;;16.52;39.79
49397;BME280;35615;41.410;2.194;2023-01-08T01:22:19;101565.56;;;16.52;39.59
49397;BME280;35615;41.410;2.194;2023-01-08T01:24:51;101562.88;;;16.51;40.28
49397;BME280;35615;41.410;2.194;2023-01-08T01:27:23;101562.22;;;16.58;40.00
49397;BME280;35615;41.410;2.194;2023-01-08T01:30:03;101555.25;;;16.57;40.29
49397;BME280;35615;41.410;2.194;2023-01-08T01:32:33;101557.03;;;16.60;40.22
49397;BME280;35615;41.410;2.194;2023-01-08T01:35:00;101550.88;;;16.56;40.15
49397;BME280;35615;41.410;2.194;2023-01-08T01:37:33;101553.25;;;16.48;39.84
49397;BME280;35615;41.410;2.194;2023-01-08T01:40:00;101541.28;;;16.55;40.10
49397;BME280;35615;41.410;2.194;2023-01-08T01:42:27;101544.03;;;16.61;40.11
49397;BME280;35615;41.410;2.194;2023-01-08T01:48:05;101541.31;;;16.56;39.59
49397;BME280;35615;41.410;2.194;2023-01-08T01:50:40;101546.78;;;16.66;39.50
49397;BME280;35615;41.410;2.194;2023-01-08T01:53:12;101543.97;;;16.58;39.28
49397;BME280;35615;41.410;2.194;2023-01-08T01:55:44;101544.44;;;16.75;39.45
49397;BME280;35615;41.410;2.194;2023-01-08T01:58:13;101548.94;;;16.80;39.31
49397;BME280;35615;41.410;2.194;2023-01-08T02:00:41;101557.59;;;16.79;39.18
49397;BME280;35615;41.410;2.194;2023-01-08T02:03:13;101563.59;;;16.75;39.38
49397;BME280;35615;41.410;2.194;2023-01-08T02:05:45;101561.94;;;16.79;39.25
49397;BME280;35615;41.410;2.194;2023-01-08T02:20:12;101563.31;;;16.99;39.01
49397;BME280;35615;41.410;2.194;2023-01-08T02:22:51;101555.47;;;16.98;38.56
49397;BME280;35615;41.410;2.194;2023-01-08T02:25:29;101556.41;;;17.01;38.51
49397;BME280;35615;41.410;2.194;2023-01-08T02:28:09;101554.97;;;16.78;38.96
49397;BME280;35615;41.410;2.194;2023-01-08T02:30:43;101544.81;;;16.90;38.94
49397;BME280;35615;41.410;2.194;2023-01-08T02:33:45;101553.69;;;16.97;38.98
49397;BME280;35615;41.410;2.194;2023-01-08T02:37:00;101547.41;;;16.89;39.42
49397;BME280;35615;41.410;2.194;2023-01-08T02:39:52;101535.25;;;16.91;39.64
49397;BME280;35615;41.410;2.194;2023-01-08T02:42:11;101522.31;;;16.95;39.69
49397;BME280;35615;41.410;2.194;2023-01-08T02:45:08;101515.19;;;16.88;40.00
49397;BME280;35615;41.410;2.194;2023-01-08T02:47:47;101523.84;;;16.86;40.00
49397;BME280;35615;41.410;2.194;2023-01-08T02:54:00;101532.25;;;17.10;39.65
49397;BME280;35615;41.410;2.194;2023-01-08T02:56:15;101526.31;;;17.17;39.65
49397;BME280;35615;41.410;2.194;2023-01-08T02:58:46;101516.16;;;16.92;40.35
49397;BME280;35615;41.410;2.194;2023-01-08T03:01:19;101508.66;;;17.07;40.28
49397;BME280;35615;41.410;2.194;2023-01-08T03:03:51;101502.81;;;17.17;40.18
49397;BME280;35615;41.410;2.194;2023-01-08T03:06:22;101497.72;;;17.22;40.11
49397;BME280;35615;41.410;2.194;2023-01-08T03:08:53;101500.44;;;17.26;40.34
49397;BME280;35615;41.410;2.194;2023-01-08T03:11:23;101496.13;;;17.28;40.43
49397;BME280;35615;41.410;2.194;2023-01-08T03:13:56;101485.66;;;17.28;40.26
49397;BME280;35615;41.410;2.194;2023-01-08T03:16:25;101484.13;;;17.36;40.14
49397;BME280;35615;41.410;2.194;2023-01-08T03:18:58;101488.44;;;17.34;40.10
49397;BME280;35615;41.410;2.194;2023-01-08T03:21:27;101487.56;;;17.34;40.37
49397;BME280;35615;41.410;2.194;2023-01-08T03:23:59;101479.31;;;17.17;40.61
49397;BME280;35615;41.410;2.194;2023-01-08T03:26:26;101462.75;;;17.15;40.29
49397;BME280;35615;41.410;2.194;2023-01-08T03:28:54;101465.31;;;17.13;40.07
49397;BME280;35615;41.410;2.194;2023-01-08T03:31:23;101457.28;;;17.04;40.39
49397;BME280;35615;41.410;2.194;2023-01-08T03:33:52;101460.72;;;17.02;40.41
49397;BME280;35615;41.410;2.194;2023-01-08T03:36:24;101460.75;;;17.03;40.39
49397;BME280;35615;41.410;2.194;2023-01-08T03:39:02;101458.88;;;16.98;40.51
49397;BME280;35615;41.410;2.194;2023-01-08T03:41:33;101457.00;;;16.92;40.56
49397;BME280;35615;41.410;2.194;2023-01-08T03:44:04;101463.47;;;16.72;40.81
49397;BME280;35615;41.410;2.194;2023-01-08T03:46:32;101462.97;;;16.87;40.81
49397;BME280;35615;41.410;2.194;2023-01-08T03:49:00;101457.22;;;16.67;41.42
49397;BME280;35615;41.410;2.194;2023-01-08T03:51:28;101451.44;;;16.77;41.17
49397;BME280;35615;41.410;2.194;2023-01-08T03:53:55;101445.78;;;16.62;41.64
49397;BME280;35615;41.410;2.194;2023-01-08T03:56:24;101448.59;;;16.68;41.80
49397;BME280;35615;41.410;2.194;2023-01-08T04:01:31;101448.00;;;16.79;42.16
49397;BME280;35615;41.410;2.194;2023-01-08T04:03:58;101442.97;;;16.87;42.18
49397;BME280;35615;41.410;2.194;2023-01-08T04:06:28;101436.44;;;17.06;42.30
49397;BME280;35615;41.410;2.194;2023-01-08T04:08:58;101424.34;;;16.73;43.00
49397;BME280;35615;41.410;2.194;2023-01-08T04:11:26;101421.81;;;16.75;43.56
49397;BME280;35615;41.410;2.194;2023-01-08T04:13:58;101424.34;;;16.73;43.70
49397;BME280;35615;41.410;2.194;2023-01-08T04:16:30;101405.13;;;16.68;44.21
49397;BME280;35615;41.410;2.194;2023-01-08T04:18:57;101409.50;;;16.69;44.35
49397;BME280;35615;41.410;2.194;2023-01-08T04:21:24;101406.63;;;16.60;44.74
49397;BME280;35615;41.410;2.194;2023-01-08T04:23:51;101401.44;;;16.62;44.63
49397;BME280;35615;41.410;2.194;2023-01-08T04:26:22;101388.09;;;16.49;44.88
49397;BME280;35615;41.410;2.194;2023-01-08T04:28:50;101381.50;;;16.64;44.98
49397;BME280;35615;41.410;2.194;2023-01-08T04:31:21;101376.38;;;16.31;45.97
49397;BME280;35615;41.410;2.194;2023-01-08T04:33:48;101385.16;;;16.36;45.79
49397;BME280;35615;41.410;2.194;2023-01-08T04:36:31;101396.44;;;16.35;45.85
49397;BME280;35615;41.410;2.194;2023-01-08T04:39:01;101402.50;;;16.34;46.01
49397;BME280;35615;41.410;2.194;2023-01-08T04:41:31;101392.38;;;16.11;45.94
49397;BME280;35615;41.410;2.194;2023-01-08T04:44:00;101389.91;;;16.17;44.96
49397;BME280;35615;41.410;2.194;2023-01-08T04:46:30;101380.56;;;16.25;44.88
49397;BME280;35615;41.410;2.194;2023-01-08T04:49:05;101372.06;;;16.33;44.25
49397;BME280;35615;41.410;2.194;2023-01-08T04:51:32;101370.38;;;16.35;44.79
49397;BME280;35615;41.410;2.194;2023-01-08T04:56:39;101371.53;;;16.47;45.06
49397;BME280;35615;41.410;2.194;2023-01-08T04:59:11;101363.69;;;16.46;44.91
49397;BME280;35615;41.410;2.194;2023-01-08T05:01:48;101357.69;;;16.50;44.89
49397;BME280;35615;41.410;2.194;2023-01-08T05:04:19;101355.91;;;16.13;44.90
49397;BME280;35615;41.410;2.194;2023-01-08T05:06:46;101357.41;;;16.03;44.83
49397;BME280;35615;41.410;2.194;2023-01-08T05:09:16;101349.66;;;16.06;44.83
49397;BME280;35615;41.410;2.194;2023-01-08T05:11:46;101347.13;;;16.08;44.78
49397;BME280;35615;41.410;2.194;2023-01-08T05:14:15;101334.25;;;16.15;44.47
49397;BME280;35615;41.410;2.194;2023-01-08T05:16:42;101331.38;;;16.05;44.37
49397;BME280;35615;41.410;2.194;2023-01-08T05:19:11;101329.75;;;16.08;44.61
49397;BME280;35615;41.410;2.194;2023-01-08T05:21:39;101321.06;;;16.08;44.74
49397;BME280;35615;41.410;2.194;2023-01-08T05:24:06;101323.66;;;16.08;45.03
49397;BME280;35615;41.410;2.194;2023-01-08T05:26:34;101335.75;;;16.06;44.94
49397;BME280;35615;41.410;2.194;2023-01-08T05:29:02;101335.56;;;15.98;45.16
49397;BME280;35615;41.410;2.194;2023-01-08T05:31:29;101341.78;;;16.03;45.28
49397;BME280;35615;41.410;2.194;2023-01-08T05:33:56;101344.97;;;15.93;45.70
49397;BME280;35615;41.410;2.194;2023-01-08T05:36:25;101344.03;;;15.89;45.78
49397;BME280;35615;41.410;2.194;2023-01-08T05:38:52;101353.25;;;15.77;45.82
49397;BME280;35615;41.410;2.194;2023-01-08T05:41:19;101355.16;;;15.52;46.37
49397;BME280;35615;41.410;2.194;2023-01-08T05:43:46;101354.41;;;15.88;45.67
49397;BME280;35615;41.410;2.194;2023-01-08T05:46:13;101356.75;;;15.77;45.87
49397;BME280;35615;41.410;2.194;2023-01-08T05:48:40;101368.19;;;15.84;45.90
49397;BME280;35615;41.410;2.194;2023-01-08T05:51:10;101370.75;;;15.82;46.04
49397;BME280;35615;41.410;2.194;2023-01-08T05:53:40;101363.22;;;15.93;45.89
49397;BME280;35615;41.410;2.194;2023-01-08T05:56:08;101375.66;;;16.03;45.94
49397;BME280;35615;41.410;2.194;2023-01-08T05:58:36;101378.66;;;16.18;45.44
49397;BME280;35615;41.410;2.194;2023-01-08T06:01:04;101376.94;;;16.19;45.65
49397;BME280;35615;41.410;2.194;2023-01-08T06:03:32;101381.66;;;16.34;45.64
49397;BME280;35615;41.410;2.194;2023-01-08T06:06:00;101381.50;;;16.29;45.69
49397;BME280;35615;41.410;2.194;2023-01-08T06:08:27;101380.72;;;16.32;45.49
49397;BME280;35615;41.410;2.194;2023-01-08T06:10:58;101379.81;;;16.30;45.69
49397;BME280;35615;41.410;2.194;2023-01-08T06:13:28;101377.38;;;16.37;45.58
49397;BME280;35615;41.410;2.194;2023-01-08T06:15:59;101368.00;;;16.44;45.50
49397;BME280;35615;41.410;2.194;2023-01-08T06:18:27;101370.75;;;16.51;45.65
49397;BME280;35615;41.410;2.194;2023-01-08T06:20:54;101377.53;;;16.43;46.50
49397;BME280;35615;41.410;2.194;2023-01-08T06:23:21;101382.00;;;16.49;45.79
49397;BME280;35615;41.410;2.194;2023-01-08T06:25:52;101390.16;;;16.26;46.47
49397;BME280;35615;41.410;2.194;2023-01-08T06:28:20;101379.72;;;16.26;46.67
49397;BME280;35615;41.410;2.194;2023-01-08T06:30:49;101389.16;;;16.21;47.09
49397;BME280;35615;41.410;2.194;2023-01-08T06:33:17;101390.78;;;16.18;47.20
49397;BME280;35615;41.410;2.194;2023-01-08T06:35:47;101396.25;;;15.94;47.90
49397;BME280;35615;41.410;2.194;2023-01-08T06:38:14;101401.34;;;15.89;48.48
49397;BME280;35615;41.410;2.194;2023-01-08T06:40:47;101393.81;;;16.00;48.14
49397;BME280;35615;41.410;2.194;2023-01-08T06:43:14;101391.56;;;16.14;47.66
49397;BME280;35615;41.410;2.194;2023-01-08T06:45:41;101389.13;;;16.20;47.63
49397;BME280;35615;41.410;2.194;2023-01-08T06:48:08;101391.00;;;15.92;48.40
49397;BME280;35615;41.410;2.194;2023-01-08T06:50:35;101384.78;;;16.20;47.58
49397;BME280;35615;41.410;2.194;2023-01-08T06:53:02;101382.97;;;16.18;47.57
49397;BME280;35615;41.410;2.194;2023-01-08T06:55:29;101379.41;;;16.14;48.02
49397;BME280;35615;41.410;2.194;2023-01-08T06:57:59;101375.59;;;16.00;48.52
49397;BME280;35615;41.410;2.194;2023-01-08T07:00:26;101373.72;;;15.96;48.70
49397;BME280;35615;41.410;2.194;2023-01-08T07:02:53;101356.91;;;15.85;48.91
49397;BME280;35615;41.410;2.194;2023-01-08T07:05:21;101364.53;;;15.76;49.26
49397;BME280;35615;41.410;2.194;2023-01-08T07:07:48;101361.72;;;16.01;48.58
49397;BME280;35615;41.410;2.194;2023-01-08T07:10:16;101363.72;;;16.11;48.20
49397;BME280;35615;41.410;2.194;2023-01-08T07:12:46;101354.50;;;15.91;48.39
49397;BME280;35615;41.410;2.194;2023-01-08T07:15:19;101364.06;;;15.92;48.63
49397;BME280;35615;41.410;2.194;2023-01-08T07:17:46;101370.66;;;16.11;48.01
49397;BME280;35615;41.410;2.194;2023-01-08T07:20:13;101367.31;;;16.18;47.91
49397;BME280;35615;41.410;2.194;2023-01-08T07:22:44;101366.69;;;16.26;48.02
49397;BME280;35615;41.410;2.194;2023-01-08T07:25:11;101363.41;;;16.34;48.19
49397;BME280;35615;41.410;2.194;2023-01-08T07:27:38;101363.59;;;16.41;48.15
49397;BME280;35615;41.410;2.194;2023-01-08T07:30:06;101367.19;;;16.48;48.01
49397;BME280;35615;41.410;2.194;2023-01-08T07:32:43;101364.63;;;16.49;47.96
49397;BME280;35615;41.410;2.194;2023-01-08T07:35:11;101356.84;;;16.51;48.23
49397;BME280;35615;41.410;2.194;2023-01-08T07:37:41;101349.97;;;16.53;47.87
49397;BME280;35615;41.410;2.194;2023-01-08T07:40:09;101355.25;;;16.58;48.16
49397;BME280;35615;41.410;2.194;2023-01-08T07:42:37;101356.09;;;16.55;48.23
49397;BME280;35615;41.410;2.194;2023-01-08T07:45:04;101361.31;;;16.55;48.11
49397;BME280;35615;41.410;2.194;2023-01-08T07:47:31;101370.94;;;16.59;48.07
49397;BME280;35615;41.410;2.194;2023-01-08T07:49:58;101368.34;;;16.59;48.00
49397;BME280;35615;41.410;2.194;2023-01-08T07:52:25;101368.28;;;16.56;47.89
49397;BME280;35615;41.410;2.194;2023-01-08T07:54:53;101360.66;;;16.65;48.13
49397;BME280;35615;41.410;2.194;2023-01-08T07:57:20;101364.31;;;16.72;48.08
49397;BME280;35615;41.410;2.194;2023-01-08T07:59:47;101355.75;;;16.77;48.09
49397;BME280;35615;41.410;2.194;2023-01-08T08:02:14;101342.81;;;16.82;47.78
49397;BME280;35615;41.410;2.194;2023-01-08T08:04:42;101341.91;;;16.80;48.34
49397;BME280;35615;41.410;2.194;2023-01-08T08:07:09;101334.22;;;16.86;48.38
49397;BME280;35615;41.410;2.194;2023-01-08T08:09:36;101332.63;;;16.94;47.98
49397;BME280;35615;41.410;2.194;2023-01-08T08:12:03;101338.03;;;17.03;47.64
49397;BME280;35615;41.410;2.194;2023-01-08T08:14:30;101333.75;;;17.07;47.58
49397;BME280;35615;41.410;2.194;2023-01-08T08:16:57;101333.94;;;17.14;47.64
49397;BME280;35615;41.410;2.194;2023-01-08T08:19:24;101338.41;;;17.20;47.26
49397;BME280;35615;41.410;2.194;2023-01-08T08:21:51;101343.06;;;17.35;47.15
49397;BME280;35615;41.410;2.194;2023-01-08T08:24:18;101344.88;;;17.39;46.92
49397;BME280;35615;41.410;2.194;2023-01-08T08:26:45;101351.94;;;17.43;47.01
49397;BME280;35615;41.410;2.194;2023-01-08T08:29:13;101349.38;;;17.46;47.04
49397;BME280;35615;41.410;2.194;2023-01-08T08:31:40;101359.81;;;17.46;46.88
49397;BME280;35615;41.410;2.194;2023-01-08T08:34:08;101354.66;;;17.49;46.97
49397;BME280;35615;41.410;2.194;2023-01-08T08:36:35;101345.84;;;17.44;46.77
49397;BME280;35615;41.410;2.194;2023-01-08T08:39:02;101355.44;;;17.43;47.00
49397;BME280;35615;41.410;2.194;2023-01-08T08:41:29;101358.56;;;16.85;46.68
49397;BME280;35615;41.410;2.194;2023-01-08T08:43:56;101348.19;;;16.90;45.65
49397;BME280;35615;41.410;2.194;2023-01-08T08:46:24;101344.41;;;16.75;45.69
49397;BME280;35615;41.410;2.194;2023-01-08T08:48:55;101339.91;;;17.07;44.77
49397;BME280;35615;41.410;2.194;2023-01-08T08:51:22;101335.59;;;17.09;44.76
49397;BME280;35615;41.410;2.194;2023-01-08T08:53:49;101342.66;;;17.17;44.23
49397;BME280;35615;41.410;2.194;2023-01-08T08:56:16;101344.69;;;16.88;44.72
49397;BME280;35615;41.410;2.194;2023-01-08T08:58:43;101336.81;;;16.86;44.70
49397;BME280;35615;41.410;2.194;2023-01-08T09:01:13;101344.09;;;17.01;44.22
49397;BME280;35615;41.410;2.194;2023-01-08T09:03:42;101333.88;;;17.11;43.98
49397;BME280;35615;41.410;2.194;2023-01-08T09:06:13;101319.50;;;16.90;44.41
49397;BME280;35615;41.410;2.194;2023-01-08T09:08:40;101301.25;;;16.91;44.60
49397;BME280;35615;41.410;2.194;2023-01-08T09:11:07;101304.78;;;16.95;44.38
49397;BME280;35615;41.410;2.194;2023-01-08T09:13:37;101294.00;;;17.19;43.69
49397;BME280;35615;41.410;2.194;2023-01-08T09:16:04;101289.69;;;17.21;43.88
49397;BME280;35615;41.410;2.194;2023-01-08T09:18:31;101302.00;;;17.28;43.96
49397;BME280;35615;41.410;2.194;2023-01-08T09:21:02;101301.22;;;17.32;43.88
49397;BME280;35615;41.410;2.194;2023-01-08T09:23:29;101309.78;;;17.26;43.92
49397;BME280;35615;41.410;2.194;2023-01-08T09:26:00;101313.44;;;17.33;43.89
49397;BME280;35615;41.410;2.194;2023-01-08T09:28:27;101309.28;;;17.00;44.74
49397;BME280;35615;41.410;2.194;2023-01-08T09:30:54;101313.44;;;17.34;43.92
49397;BME280;35615;41.410;2.194;2023-01-08T09:33:21;101308.34;;;16.97;44.88
49397;BME280;35615;41.410;2.194;2023-01-08T09:35:48;101303.25;;;17.03;44.55
49397;BME280;35615;41.410;2.194;2023-01-08T09:38:15;101307.56;;;17.01;44.82
49397;BME280;35615;41.410;2.194;2023-01-08T09:40:50;101301.41;;;16.97;44.81
49397;BME280;35615;41.410;2.194;2023-01-08T09:43:25;101315.03;;;17.28;44.42
49397;BME280;35615;41.410;2.194;2023-01-08T09:45:55;101315.56;;;17.08;44.59
49397;BME280;35615;41.410;2.194;2023-01-08T09:48:27;101310.50;;;17.18;44.95
49397;BME280;35615;41.410;2.194;2023-01-08T09:50:55;101313.25;;;17.25;45.60
49397;BME280;35615;41.410;2.194;2023-01-08T09:53:22;101316.69;;;17.23;45.84
49397;BME280;35615;41.410;2.194;2023-01-08T09:55:59;101309.81;;;17.71;45.29
49397;BME280;35615;41.410;2.194;2023-01-08T09:58:37;101308.47;;;17.48;46.30
49397;BME280;35615;41.410;2.194;2023-01-08T10:01:10;101305.00;;;17.48;46.28
49397;BME280;35615;41.410;2.194;2023-01-08T10:04:25;101299.16;;;17.17;47.43
49397;BME280;35615;41.410;2.194;2023-01-08T10:06:26;101302.69;;;17.64;46.69
49397;BME280;35615;41.410;2.194;2023-01-08T10:08:53;101284.03;;;17.91;46.27
49397;BME280;35615;41.410;2.194;2023-01-08T10:11:20;101292.50;;;17.77;46.76
49397;BME280;35615;41.410;2.194;2023-01-08T10:13:52;101298.63;;;17.79;46.79
49397;BME280;35615;41.410;2.194;2023-01-08T10:18:49;101309.34;;;17.94;46.81
49397;BME280;35615;41.410;2.194;2023-01-08T10:21:16;101307.56;;;17.93;47.00
49397;BME280;35615;41.410;2.194;2023-01-08T10:23:47;101297.25;;;18.56;45.95
49397;BME280;35615;41.410;2.194;2023-01-08T10:26:27;101295.22;;;18.37;45.81
49397;BME280;35615;41.410;2.194;2023-01-08T10:29:11;101288.09;;;18.86;45.18
49397;BME280;35615;41.410;2.194;2023-01-08T10:31:50;101288.06;;;17.73;47.57
49397;BME280;35615;41.410;2.194;2023-01-08T10:34:25;101280.03;;;18.15;47.03
49397;BME280;35615;41.410;2.194;2023-01-08T10:36:53;101273.22;;;18.24;46.59
49397;BME280;35615;41.410;2.194;2023-01-08T10:39:25;101270.25;;;18.61;45.58
49397;BME280;35615;41.410;2.194;2023-01-08T10:41:54;101267.97;;;18.21;46.66
49397;BME280;35615;41.410;2.194;2023-01-08T10:44:23;101249.53;;;18.15;46.46
49397;BME280;35615;41.410;2.194;2023-01-08T10:46:54;101247.84;;;18.79;45.35
49397;BME280;35615;41.410;2.194;2023-01-08T10:49:32;101256.00;;;17.83;47.42
49397;BME280;35615;41.410;2.194;2023-01-08T10:52:02;101256.41;;;18.65;45.87
49397;BME280;35615;41.410;2.194;2023-01-08T10:54:39;101245.59;;;18.43;46.27
49397;BME280;35615;41.410;2.194;2023-01-08T10:59:56;101256.94;;;17.86;47.63
49397;BME280;35615;41.410;2.194;2023-01-08T11:04:53;101239.75;;;18.02;47.91
49397;BME280;35615;41.410;2.194;2023-01-08T11:07:21;101226.78;;;18.08;47.65
49397;BME280;35615;41.410;2.194;2023-01-08T11:09:49;101218.84;;;18.04;47.25
49397;BME280;35615;41.410;2.194;2023-01-08T11:14:48;101211.38;;;18.28;46.90
49397;BME280;35615;41.410;2.194;2023-01-08T11:17:17;101208.25;;;17.94;47.57
49397;BME280;35615;41.410;2.194;2023-01-08T11:19:44;101201.50;;;18.07;47.18
49397;BME280;35615;41.410;2.194;2023-01-08T11:22:30;101186.22;;;18.39;46.78
49397;BME280;35615;41.410;2.194;2023-01-08T11:25:00;101179.06;;;18.24;47.10
49397;BME280;35615;41.410;2.194;2023-01-08T11:27:36;101161.63;;;18.23;46.87
49397;BME280;35615;41.410;2.194;2023-01-08T11:32:41;101142.75;;;18.49;46.22
49397;BME280;35615;41.410;2.194;2023-01-08T11:35:18;101138.06;;;18.20;46.77
49397;BME280;35615;41.410;2.194;2023-01-08T11:37:54;101126.88;;;18.32;46.78
49397;BME280;35615;41.410;2.194;2023-01-08T11:45:33;101123.19;;;18.89;45.24
49397;BME280;35615;41.410;2.194;2023-01-08T11:53:40;101109.91;;;18.72;46.01
49397;BME280;35615;41.410;2.194;2023-01-08T11:58:55;101106.78;;;19.07;45.42
49397;BME280;35615;41.410;2.194;2023-01-08T12:06:52;101114.63;;;19.07;45.80
49397;BME280;35615;41.410;2.194;2023-01-08T12:12:02;101099.44;;;18.72;46.56
49397;BME280;35615;41.410;2.194;2023-01-08T12:33:04;101068.69;;;18.51;49.35
49397;BME280;35615;41.410;2.194;2023-01-08T12:35:37;101069.97;;;18.13;50.38
49397;BME280;35615;41.410;2.194;2023-01-08T12:38:22;101073.97;;;18.59;49.67
49397;BME280;35615;41.410;2.194;2023-01-08T12:40:53;101062.59;;;18.55;50.64
49397;BME280;35615;41.410;2.194;2023-01-08T12:43:56;101061.00;;;18.67;50.81
49397;BME280;35615;41.410;2.194;2023-01-08T12:46:15;101063.47;;;18.53;51.94
49397;BME280;35615;41.410;2.194;2023-01-08T12:48:43;101047.34;;;18.18;53.36
49397;BME280;35615;41.410;2.194;2023-01-08T13:04:18;101022.25;;;18.32;54.10
49397;BME280;35615;41.410;2.194;2023-01-08T13:06:50;101021.28;;;18.24;54.88
49397;BME280;35615;41.410;2.194;2023-01-08T13:09:20;101010.72;;;18.15;55.03
49397;BME280;35615;41.410;2.194;2023-01-08T13:11:50;101005.81;;;17.69;56.27
49397;BME280;35615;41.410;2.194;2023-01-08T13:14:18;101002.00;;;17.49;56.70
49397;BME280;35615;41.410;2.194;2023-01-08T13:16:45;100992.41;;;18.13;54.95
49397;BME280;35615;41.410;2.194;2023-01-08T13:19:30;100994.16;;;18.14;55.57
49397;BME280;35615;41.410;2.194;2023-01-08T13:22:00;100991.13;;;17.81;56.63
49397;BME280;35615;41.410;2.194;2023-01-08T13:24:31;100988.13;;;18.20;55.38
49397;BME280;35615;41.410;2.194;2023-01-08T13:27:10;100979.44;;;18.22;55.42
49397;BME280;35615;41.410;2.194;2023-01-08T13:29:41;100979.19;;;18.03;55.76
49397;BME280;35615;41.410;2.194;2023-01-08T13:35:38;100954.50;;;18.61;54.17
49397;BME280;35615;41.410;2.194;2023-01-08T13:37:48;100938.75;;;18.53;54.36
49397;BME280;35615;41.410;2.194;2023-01-08T13:43:04;100917.25;;;18.91;53.15
49397;BME280;35615;41.410;2.194;2023-01-08T13:45:38;100925.56;;;18.41;53.99
49397;BME280;35615;41.410;2.194;2023-01-08T13:48:18;100943.25;;;18.65;53.81
49397;BME280;35615;41.410;2.194;2023-01-08T13:50:46;100955.44;;;17.81;56.17
49397;BME280;35615;41.410;2.194;2023-01-08T13:53:14;100954.66;;;17.88;56.70
49397;BME280;35615;41.410;2.194;2023-01-08T13:55:42;100944.00;;;17.73;56.84
49397;BME280;35615;41.410;2.194;2023-01-08T13:58:18;100934.22;;;17.58;56.79
49397;BME280;35615;41.410;2.194;2023-01-08T14:00:47;100961.88;;;17.41;56.75
49397;BME280;35615;41.410;2.194;2023-01-08T14:03:28;100963.41;;;17.95;56.12
49397;BME280;35615;41.410;2.194;2023-01-08T14:06:04;100958.63;;;18.33;54.94
49397;BME280;35615;41.410;2.194;2023-01-08T14:08:34;100970.97;;;18.51;54.11
49397;BME280;35615;41.410;2.194;2023-01-08T14:11:05;100957.84;;;18.43;54.00
49397;BME280;35615;41.410;2.194;2023-01-08T14:13:44;100927.38;;;18.50;53.34
49397;BME280;35615;41.410;2.194;2023-01-08T14:16:13;100943.09;;;18.51;53.05
49397;BME280;35615;41.410;2.194;2023-01-08T14:18:42;100930.19;;;18.71;52.39
49397;BME280;35615;41.410;2.194;2023-01-08T14:21:10;100935.47;;;18.77;52.19
49397;BME280;35615;41.410;2.194;2023-01-08T14:23:44;100927.72;;;18.90;51.81
49397;BME280;35615;41.410;2.194;2023-01-08T14:26:31;100913.84;;;19.03;51.53
49397;BME280;35615;41.410;2.194;2023-01-08T14:29:02;100904.28;;;19.12;51.00
49397;BME280;35615;41.410;2.194;2023-01-08T14:31:33;100887.78;;;19.27;50.25
49397;BME280;35615;41.410;2.194;2023-01-08T14:34:00;100884.38;;;19.43;49.76
49397;BME280;35615;41.410;2.194;2023-01-08T14:36:27;100891.31;;;19.34;49.66
49397;BME280;35615;41.410;2.194;2023-01-08T14:38:54;100890.38;;;19.24;49.66
49397;BME280;35615;41.410;2.194;2023-01-08T14:43:55;100894.88;;;19.51;48.88
49397;BME280;35615;41.410;2.194;2023-01-08T14:46:26;100898.22;;;19.18;49.64
49397;BME280;35615;41.410;2.194;2023-01-08T14:48:54;100904.44;;;19.40;49.11
49397;BME280;35615;41.410;2.194;2023-01-08T14:51:23;100890.50;;;19.50;48.81